Flight Track Log - Related Links

Times and Time Zones

All times are in EDT time to prevent confusion due to time zone crossing. See the VNR160 flight status page for this flight to view local times or setup timezone preferences in your user account.

Time Position Orientation Groundspeed Altitude Reporting Facility
EDT Latitude Longitude Course Direction KTS MPH feet Rate Location/Type
Thu 11:14:42 AM 42.3667 -87.9167 154° Southeast 174 200 3,400  Level Chicago TRACON
Thu 11:15:42 AM 42.3167 -87.8833 154° Southeast 209 241 5,400 1,937 Climbing Chicago TRACON
Thu 11:16:49 AM 42.2661 -87.8689 168° South 211 243 7,500 2,140 Climbing Chicago Center
Thu 11:17:51 AM 42.2081 -87.8622 175° South 211 243 10,000 2,177 Climbing Chicago Center
Thu 11:18:53 AM 42.1472 -87.8519 173° South 217 250 12,000 2,081 Climbing Chicago Center
Thu 11:19:55 AM 42.0664 -87.8258 167° South 246 283 14,300 2,081 Climbing Chicago Center
Thu 11:20:57 AM 41.9950 -87.7975 164° South 266 306 16,300 1,902 Climbing Chicago Center
Thu 11:21:58 AM 41.9242 -87.7717 165° South 267 307 18,200 1,902 Climbing Chicago Center
Thu 11:23:00 AM 41.8519 -87.7436 164° South 270 311 20,200 1,887 Climbing Chicago Center
Thu 11:24:02 AM 41.7783 -87.7142 163° South 274 315 22,100 1,742 Climbing Chicago Center
Thu 11:25:04 AM 41.7031 -87.6825 163° South 282 325 23,800 1,403 Climbing Chicago Center
Thu 11:26:06 AM 41.6289 -87.6286 151° Southeast 299 344 25,000 581 Climbing Chicago Center
Thu 11:27:08 AM 41.5233 -87.5544 152° Southeast 356 410 25,000  Level Chicago Center
Thu 11:28:10 AM 41.4303 -87.4872 152° Southeast 376 433 25,000  Level Chicago Center
Thu 11:29:12 AM 41.3328 -87.4181 152° Southeast 389 448 25,000  Level Chicago Center
Thu 11:30:14 AM 41.2336 -87.3486 152° Southeast 400 460 25,000  Level Chicago Center
Thu 11:31:15 AM 41.1344 -87.2789 152° Southeast 402 463 25,000  Level Chicago Center
Thu 11:32:17 AM 41.0347 -87.2075 152° Southeast 408 470 25,000  Level Chicago Center
Thu 11:33:19 AM 40.9136 -87.1236 152° Southeast 409 471 25,000  Level Chicago Center
Thu 11:34:21 AM 40.8136 -87.0542 152° Southeast 409 471 25,000  Level Chicago Center
Thu 11:35:23 AM 40.7139 -86.9833 152° Southeast 408 470 25,000  Level Chicago Center
Thu 11:36:25 AM 40.6036 -86.9075 152° Southeast 411 473 25,000  Level Chicago Center
Thu 11:37:27 AM 40.5017 -86.8369 152° Southeast 412 474 25,000  Level Chicago Center
Thu 11:38:29 AM 40.4003 -86.7664 152° Southeast 411 473 25,000  Level Chicago Center
Thu 11:39:31 AM 40.2978 -86.6969 153° Southeast 413 475 25,000  Level Chicago Center
Thu 11:40:33 AM 40.1953 -86.6261 152° Southeast 414 476 25,000 -1,056 Level Chicago Center
Thu 11:41:19 AM 40.1078 -86.5664 152° Southeast 419 482 23,100 -1,111 Descending Indianapolis Center
Thu 11:42:21 AM 40.0125 -86.5008 152° Southeast 389 448 23,000 -290 Descending Indianapolis Center
Thu 11:43:23 AM 39.9144 -86.4353 153° Southeast 390 449 22,500 -1,065 Descending Indianapolis Center
Thu 11:44:25 AM 39.8206 -86.3653 150° Southeast 391 450 20,800 -1,756 Descending Indianapolis Center
Thu 11:45:26 AM 39.7714 -86.2361 116° Southeast 390 449 18,900 -1,867 Descending Indianapolis Center
Thu 11:45:55 AM 39.7500 -86.1667 112° Southeast 382 440 18,000 -1,452 Descending Indianapolis TRACON
Thu 11:46:28 AM 39.7286 -86.1075 115° Southeast 375 432 17,400 -1,516 Descending Indianapolis Center
Thu 11:47:30 AM 39.6878 -85.9875 114° Southeast 363 418 15,600 -1,597 Descending Indianapolis Center
Thu 11:48:32 AM 39.6481 -85.8703 114° Southeast 354 407 14,100 -1,065 Descending Indianapolis Center
Thu 11:49:34 AM 39.6089 -85.7531 113° Southeast 353 406 13,400 -919 Descending Indianapolis Center
Thu 11:50:36 AM 39.5636 -85.6169 113° Southeast 352 405 12,200 -1,065 Descending Indianapolis Center
Thu 11:51:38 AM 39.5250 -85.5031 114° Southeast 345 397 11,200 -585 Descending Indianapolis Center
Thu 11:52:39 AM 39.4719 -85.4033 125° Southeast 333 383 11,000 -537 Descending Indianapolis Center
Thu 11:53:41 AM 39.4361 -85.2947 113° Southeast 332 382 10,100 -1,306 Descending Indianapolis Center
Thu 11:54:43 AM 39.4189 -85.1836 101° East 317 365 8,300 -1,161 Descending Indianapolis Center
Thu 11:55:45 AM 39.3978 -85.0769 104° East 305 351 7,700 -1,306 Descending Indianapolis Center
Thu 11:56:47 AM 39.3672 -84.9811 112° Southeast 289 333 5,600 -1,306 Descending Indianapolis Center
Thu 11:57:49 AM 39.3378 -84.8817 111° Southeast 263 303 5,000 -278 Descending Indianapolis Center
Thu 11:58:35 AM 39.3167 -84.8167 113° Southeast 248 285 5,100 57 Climbing Cincinnati TRACON
Thu 11:59:35 AM 39.3000 -84.7333 104° East 246 283 5,100  Level Cincinnati TRACON
Thu 12:00:35 PM 39.2667 -84.6667 123° Southeast 191 220 5,100 -500 Level Cincinnati TRACON
Thu 12:01:35 PM 39.2167 -84.6500 166° South 182 209 4,100 -1,000 Descending Cincinnati TRACON
Thu 12:02:35 PM 39.1667 -84.6667 194° South 162 186 3,100 -932 Descending Cincinnati TRACON
Thu 12:03:18 PM 39.1500 -84.6667 180° South 152 175 2,500 -744 Descending Cincinnati TRACON
Thu 12:04:36 PM 39.1000 -84.6667 180° South 113 130 1,600 -692 Descending Cincinnati TRACON
Thu 12:06:00 PM 39.0488 -84.6678 184° South  Level Estimated
Thu 12:13:00 PM 39.0488 -84.6678 184° South  Level Estimated

Login

Don't have an account? Register now (free) for customized features, flight alerts, and more!